sensor_id;sensor_type;location;lat;lon;timestamp;temperature;humidity
55777;DHT22;54079;44.540;18.784;2024-03-02T00:00:23;12.40;81.40
55777;DHT22;54079;44.540;18.784;2024-03-02T00:02:51;12.30;81.70
55777;DHT22;54079;44.540;18.784;2024-03-02T00:05:21;12.20;82.40
55777;DHT22;54079;44.540;18.784;2024-03-02T00:07:55;12.30;82.40
55777;DHT22;54079;44.540;18.784;2024-03-02T00:10:24;12.40;82.50
55777;DHT22;54079;44.540;18.784;2024-03-02T00:12:58;12.30;82.00
55777;DHT22;54079;44.540;18.784;2024-03-02T00:17:56;12.40;83.00
55777;DHT22;54079;44.540;18.784;2024-03-02T00:20:23;12.30;82.80
55777;DHT22;54079;44.540;18.784;2024-03-02T00:22:50;12.30;82.50
55777;DHT22;54079;44.540;18.784;2024-03-02T00:25:16;12.40;82.70
55777;DHT22;54079;44.540;18.784;2024-03-02T00:27:44;12.50;82.50
55777;DHT22;54079;44.540;18.784;2024-03-02T00:31:31;12.60;83.20
55777;DHT22;54079;44.540;18.784;2024-03-02T00:33:30;12.60;82.20
55777;DHT22;54079;44.540;18.784;2024-03-02T00:35:57;12.60;82.70
55777;DHT22;54079;44.540;18.784;2024-03-02T00:38:23;12.50;83.50
55777;DHT22;54079;44.540;18.784;2024-03-02T00:40:50;12.50;84.70
55777;DHT22;54079;44.540;18.784;2024-03-02T00:45:57;12.50;85.40
55777;DHT22;54079;44.540;18.784;2024-03-02T00:48:23;12.60;85.60
55777;DHT22;54079;44.540;18.784;2024-03-02T00:50:53;12.60;84.80
55777;DHT22;54079;44.540;18.784;2024-03-02T00:53:21;12.60;84.70
55777;DHT22;54079;44.540;18.784;2024-03-02T00:55:50;12.70;85.00
55777;DHT22;54079;44.540;18.784;2024-03-02T00:58:16;12.60;85.60
55777;DHT22;54079;44.540;18.784;2024-03-02T01:00:42;12.50;86.10
55777;DHT22;54079;44.540;18.784;2024-03-02T01:03:08;12.50;85.50
55777;DHT22;54079;44.540;18.784;2024-03-02T01:05:36;12.40;83.80
55777;DHT22;54079;44.540;18.784;2024-03-02T01:08:02;12.40;83.70
55777;DHT22;54079;44.540;18.784;2024-03-02T01:10:28;12.40;83.60
55777;DHT22;54079;44.540;18.784;2024-03-02T01:12:54;12.30;83.90
55777;DHT22;54079;44.540;18.784;2024-03-02T01:15:20;12.40;85.70
55777;DHT22;54079;44.540;18.784;2024-03-02T01:17:46;12.30;85.20
55777;DHT22;54079;44.540;18.784;2024-03-02T01:20:12;12.40;85.60
55777;DHT22;54079;44.540;18.784;2024-03-02T01:22:38;12.50;86.10
55777;DHT22;54079;44.540;18.784;2024-03-02T01:25:05;12.40;85.10
55777;DHT22;54079;44.540;18.784;2024-03-02T01:27:31;12.40;85.20
55777;DHT22;54079;44.540;18.784;2024-03-02T01:29:57;12.50;86.30
55777;DHT22;54079;44.540;18.784;2024-03-02T01:32:25;12.50;85.10
55777;DHT22;54079;44.540;18.784;2024-03-02T01:34:51;12.50;85.30
55777;DHT22;54079;44.540;18.784;2024-03-02T01:37:17;12.60;85.20
55777;DHT22;54079;44.540;18.784;2024-03-02T01:39:43;12.50;86.10
55777;DHT22;54079;44.540;18.784;2024-03-02T01:42:09;12.50;84.50
55777;DHT22;54079;44.540;18.784;2024-03-02T01:44:36;12.50;84.20
55777;DHT22;54079;44.540;18.784;2024-03-02T01:47:02;12.50;84.40
55777;DHT22;54079;44.540;18.784;2024-03-02T01:49:28;12.50;85.30
55777;DHT22;54079;44.540;18.784;2024-03-02T01:51:54;12.60;85.90
55777;DHT22;54079;44.540;18.784;2024-03-02T01:54:20;12.60;85.30
55777;DHT22;54079;44.540;18.784;2024-03-02T01:56:46;12.50;85.30
55777;DHT22;54079;44.540;18.784;2024-03-02T01:59:12;12.40;86.20
55777;DHT22;54079;44.540;18.784;2024-03-02T02:01:39;12.40;87.50
55777;DHT22;54079;44.540;18.784;2024-03-02T02:04:05;12.40;86.30
55777;DHT22;54079;44.540;18.784;2024-03-02T02:06:32;12.40;86.80
55777;DHT22;54079;44.540;18.784;2024-03-02T02:08:58;12.40;87.10
55777;DHT22;54079;44.540;18.784;2024-03-02T02:11:25;12.30;87.80
55777;DHT22;54079;44.540;18.784;2024-03-02T02:13:51;12.30;87.70
55777;DHT22;54079;44.540;18.784;2024-03-02T02:16:17;12.30;88.20
55777;DHT22;54079;44.540;18.784;2024-03-02T02:18:43;12.20;87.70
55777;DHT22;54079;44.540;18.784;2024-03-02T02:21:08;12.30;89.50
55777;DHT22;54079;44.540;18.784;2024-03-02T02:23:34;12.20;89.10
55777;DHT22;54079;44.540;18.784;2024-03-02T02:26:01;11.90;89.90
55777;DHT22;54079;44.540;18.784;2024-03-02T02:28:28;11.90;89.50
55777;DHT22;54079;44.540;18.784;2024-03-02T02:30:55;11.80;90.20
55777;DHT22;54079;44.540;18.784;2024-03-02T02:33:22;11.30;90.50
55777;DHT22;54079;44.540;18.784;2024-03-02T02:35:48;11.10;91.20
55777;DHT22;54079;44.540;18.784;2024-03-02T02:38:14;11.50;91.30
55777;DHT22;54079;44.540;18.784;2024-03-02T02:40:39;11.50;90.90
55777;DHT22;54079;44.540;18.784;2024-03-02T02:43:05;11.40;91.00
55777;DHT22;54079;44.540;18.784;2024-03-02T02:45:32;11.40;91.20
55777;DHT22;54079;44.540;18.784;2024-03-02T02:47:58;11.50;90.90
55777;DHT22;54079;44.540;18.784;2024-03-02T02:50:25;11.50;91.00
55777;DHT22;54079;44.540;18.784;2024-03-02T02:52:51;11.70;90.70
55777;DHT22;54079;44.540;18.784;2024-03-02T02:55:16;11.80;90.90
55777;DHT22;54079;44.540;18.784;2024-03-02T02:57:43;11.90;90.80
55777;DHT22;54079;44.540;18.784;2024-03-02T03:00:15;11.90;90.80
55777;DHT22;54079;44.540;18.784;2024-03-02T03:02:44;11.90;90.80
55777;DHT22;54079;44.540;18.784;2024-03-02T03:05:11;11.70;91.10
55777;DHT22;54079;44.540;18.784;2024-03-02T03:07:40;11.80;91.00
55777;DHT22;54079;44.540;18.784;2024-03-02T03:10:07;11.80;91.20
55777;DHT22;54079;44.540;18.784;2024-03-02T03:12:34;11.70;91.10
55777;DHT22;54079;44.540;18.784;2024-03-02T03:15:00;11.70;91.20
55777;DHT22;54079;44.540;18.784;2024-03-02T03:17:26;11.60;91.30
55777;DHT22;54079;44.540;18.784;2024-03-02T03:19:53;11.70;91.70
55777;DHT22;54079;44.540;18.784;2024-03-02T03:22:19;11.20;91.90
55777;DHT22;54079;44.540;18.784;2024-03-02T03:24:45;10.80;93.00
55777;DHT22;54079;44.540;18.784;2024-03-02T03:27:11;11.10;93.40
55777;DHT22;54079;44.540;18.784;2024-03-02T03:29:37;11.30;92.90
55777;DHT22;54079;44.540;18.784;2024-03-02T03:32:04;11.20;92.90
55777;DHT22;54079;44.540;18.784;2024-03-02T03:34:34;10.90;93.70
55777;DHT22;54079;44.540;18.784;2024-03-02T03:37:00;11.20;93.20
55777;DHT22;54079;44.540;18.784;2024-03-02T03:39:26;11.30;92.90
55777;DHT22;54079;44.540;18.784;2024-03-02T03:41:52;11.40;93.00
55777;DHT22;54079;44.540;18.784;2024-03-02T03:44:18;11.40;93.30
55777;DHT22;54079;44.540;18.784;2024-03-02T03:46:44;11.50;92.80
55777;DHT22;54079;44.540;18.784;2024-03-02T03:49:10;11.60;93.10
55777;DHT22;54079;44.540;18.784;2024-03-02T03:51:36;11.50;92.70
55777;DHT22;54079;44.540;18.784;2024-03-02T03:54:02;11.60;93.30
55777;DHT22;54079;44.540;18.784;2024-03-02T03:56:28;11.50;93.20
55777;DHT22;54079;44.540;18.784;2024-03-02T03:58:54;11.60;93.00
55777;DHT22;54079;44.540;18.784;2024-03-02T04:01:20;11.50;93.30
55777;DHT22;54079;44.540;18.784;2024-03-02T04:03:48;11.50;93.00
55777;DHT22;54079;44.540;18.784;2024-03-02T04:06:14;11.10;93.40
55777;DHT22;54079;44.540;18.784;2024-03-02T04:08:42;11.20;93.80
55777;DHT22;54079;44.540;18.784;2024-03-02T04:11:08;10.90;93.90
55777;DHT22;54079;44.540;18.784;2024-03-02T04:13:33;11.00;94.20
55777;DHT22;54079;44.540;18.784;2024-03-02T04:15:59;11.20;94.70
55777;DHT22;54079;44.540;18.784;2024-03-02T04:18:25;11.30;94.50
55777;DHT22;54079;44.540;18.784;2024-03-02T04:20:51;11.30;93.60
55777;DHT22;54079;44.540;18.784;2024-03-02T04:23:17;11.30;93.60
55777;DHT22;54079;44.540;18.784;2024-03-02T04:25:43;11.30;93.90
55777;DHT22;54079;44.540;18.784;2024-03-02T04:28:09;11.10;94.30
55777;DHT22;54079;44.540;18.784;2024-03-02T04:30:35;11.10;94.40
55777;DHT22;54079;44.540;18.784;2024-03-02T04:33:01;11.10;94.50
55777;DHT22;54079;44.540;18.784;2024-03-02T04:35:28;11.20;95.20
55777;DHT22;54079;44.540;18.784;2024-03-02T04:37:54;11.20;94.60
55777;DHT22;54079;44.540;18.784;2024-03-02T04:40:20;11.10;95.10
55777;DHT22;54079;44.540;18.784;2024-03-02T04:42:46;11.10;94.90
55777;DHT22;54079;44.540;18.784;2024-03-02T04:45:12;11.10;95.10
55777;DHT22;54079;44.540;18.784;2024-03-02T04:47:38;11.10;95.50
55777;DHT22;54079;44.540;18.784;2024-03-02T04:50:04;11.20;95.50
55777;DHT22;54079;44.540;18.784;2024-03-02T04:52:31;11.10;95.30
55777;DHT22;54079;44.540;18.784;2024-03-02T04:54:57;10.90;95.60
55777;DHT22;54079;44.540;18.784;2024-03-02T04:57:35;10.70;95.90
55777;DHT22;54079;44.540;18.784;2024-03-02T05:00:01;10.40;96.50
55777;DHT22;54079;44.540;18.784;2024-03-02T05:02:27;10.60;96.70
55777;DHT22;54079;44.540;18.784;2024-03-02T05:04:53;10.60;96.40
55777;DHT22;54079;44.540;18.784;2024-03-02T05:07:19;10.60;96.30
55777;DHT22;54079;44.540;18.784;2024-03-02T05:09:45;10.40;96.60
55777;DHT22;54079;44.540;18.784;2024-03-02T05:12:20;10.50;97.00
55777;DHT22;54079;44.540;18.784;2024-03-02T05:15:05;10.60;97.20
55777;DHT22;54079;44.540;18.784;2024-03-02T05:17:34;10.70;97.00
55777;DHT22;54079;44.540;18.784;2024-03-02T05:20:00;10.80;97.10
55777;DHT22;54079;44.540;18.784;2024-03-02T05:22:26;10.40;96.90
55777;DHT22;54079;44.540;18.784;2024-03-02T05:24:52;10.30;98.20
55777;DHT22;54079;44.540;18.784;2024-03-02T05:27:18;10.50;98.10
55777;DHT22;54079;44.540;18.784;2024-03-02T05:29:44;10.70;98.10
55777;DHT22;54079;44.540;18.784;2024-03-02T05:32:10;10.80;97.50
55777;DHT22;54079;44.540;18.784;2024-03-02T05:34:35;10.90;97.30
55777;DHT22;54079;44.540;18.784;2024-03-02T05:37:01;10.90;96.90
55777;DHT22;54079;44.540;18.784;2024-03-02T05:39:28;10.90;96.90
55777;DHT22;54079;44.540;18.784;2024-03-02T05:41:54;10.80;97.10
55777;DHT22;54079;44.540;18.784;2024-03-02T05:44:19;10.80;97.10
55777;DHT22;54079;44.540;18.784;2024-03-02T05:46:46;10.90;97.00
55777;DHT22;54079;44.540;18.784;2024-03-02T05:49:12;10.80;97.00
55777;DHT22;54079;44.540;18.784;2024-03-02T05:51:37;10.80;97.10
55777;DHT22;54079;44.540;18.784;2024-03-02T05:54:06;11.10;97.40
55777;DHT22;54079;44.540;18.784;2024-03-02T05:56:32;11.10;96.80
55777;DHT22;54079;44.540;18.784;2024-03-02T05:58:58;11.20;96.50
55777;DHT22;54079;44.540;18.784;2024-03-02T06:01:33;10.80;97.00
55777;DHT22;54079;44.540;18.784;2024-03-02T06:03:59;11.00;97.20
55777;DHT22;54079;44.540;18.784;2024-03-02T06:06:25;11.20;96.90
55777;DHT22;54079;44.540;18.784;2024-03-02T06:08:52;11.40;96.70
55777;DHT22;54079;44.540;18.784;2024-03-02T06:11:21;11.50;96.80
55777;DHT22;54079;44.540;18.784;2024-03-02T06:13:47;11.80;96.70
55777;DHT22;54079;44.540;18.784;2024-03-02T06:16:13;11.90;96.00
55777;DHT22;54079;44.540;18.784;2024-03-02T06:18:39;12.20;95.70
55777;DHT22;54079;44.540;18.784;2024-03-02T06:21:05;12.40;95.10
55777;DHT22;54079;44.540;18.784;2024-03-02T06:23:31;12.40;95.20
55777;DHT22;54079;44.540;18.784;2024-03-02T06:25:57;12.60;95.30
55777;DHT22;54079;44.540;18.784;2024-03-02T06:28:23;12.70;95.00
55777;DHT22;54079;44.540;18.784;2024-03-02T06:30:49;12.90;94.80
55777;DHT22;54079;44.540;18.784;2024-03-02T06:33:15;13.10;94.60
55777;DHT22;54079;44.540;18.784;2024-03-02T06:35:41;13.30;94.10
55777;DHT22;54079;44.540;18.784;2024-03-02T06:38:07;13.50;93.60
55777;DHT22;54079;44.540;18.784;2024-03-02T06:40:33;13.40;94.00
55777;DHT22;54079;44.540;18.784;2024-03-02T06:42:59;13.60;94.00
55777;DHT22;54079;44.540;18.784;2024-03-02T06:45:25;13.80;93.40
55777;DHT22;54079;44.540;18.784;2024-03-02T06:47:52;14.10;92.90
55777;DHT22;54079;44.540;18.784;2024-03-02T06:50:18;14.30;92.60
55777;DHT22;54079;44.540;18.784;2024-03-02T06:52:44;14.40;92.50
55777;DHT22;54079;44.540;18.784;2024-03-02T06:55:10;14.70;92.80
55777;DHT22;54079;44.540;18.784;2024-03-02T06:57:36;14.90;91.30
55777;DHT22;54079;44.540;18.784;2024-03-02T07:00:02;15.00;91.40
55777;DHT22;54079;44.540;18.784;2024-03-02T07:02:30;16.10;91.30
55777;DHT22;54079;44.540;18.784;2024-03-02T07:04:56;17.20;89.70
55777;DHT22;54079;44.540;18.784;2024-03-02T07:07:22;17.60;87.10
55777;DHT22;54079;44.540;18.784;2024-03-02T07:09:48;18.50;86.50
55777;DHT22;54079;44.540;18.784;2024-03-02T07:12:14;19.50;84.70
55777;DHT22;54079;44.540;18.784;2024-03-02T07:14:40;20.50;81.40
55777;DHT22;54079;44.540;18.784;2024-03-02T07:17:25;21.20;78.50
55777;DHT22;54079;44.540;18.784;2024-03-02T07:19:51;22.00;76.60
55777;DHT22;54079;44.540;18.784;2024-03-02T07:22:17;22.40;75.50
55777;DHT22;54079;44.540;18.784;2024-03-02T07:24:44;23.00;73.30
55777;DHT22;54079;44.540;18.784;2024-03-02T07:27:12;23.20;71.70
55777;DHT22;54079;44.540;18.784;2024-03-02T07:29:39;23.60;70.70
55777;DHT22;54079;44.540;18.784;2024-03-02T07:32:06;24.10;70.60
55777;DHT22;54079;44.540;18.784;2024-03-02T07:34:32;24.40;69.10
55777;DHT22;54079;44.540;18.784;2024-03-02T07:36:59;24.80;68.80
55777;DHT22;54079;44.540;18.784;2024-03-02T07:39:25;25.80;67.00
55777;DHT22;54079;44.540;18.784;2024-03-02T07:41:51;26.30;66.20
55777;DHT22;54079;44.540;18.784;2024-03-02T07:44:17;26.50;63.80
55777;DHT22;54079;44.540;18.784;2024-03-02T07:46:48;26.60;63.20
55777;DHT22;54079;44.540;18.784;2024-03-02T07:49:18;27.40;61.60
55777;DHT22;54079;44.540;18.784;2024-03-02T07:51:44;27.60;60.00
55777;DHT22;54079;44.540;18.784;2024-03-02T07:54:10;27.70;59.60
55777;DHT22;54079;44.540;18.784;2024-03-02T07:56:37;28.30;58.90
55777;DHT22;54079;44.540;18.784;2024-03-02T07:59:03;28.40;57.90
55777;DHT22;54079;44.540;18.784;2024-03-02T08:01:33;29.60;57.20
55777;DHT22;54079;44.540;18.784;2024-03-02T08:03:59;30.80;56.80
55777;DHT22;54079;44.540;18.784;2024-03-02T08:06:26;31.00;55.10
55777;DHT22;54079;44.540;18.784;2024-03-02T08:09:00;32.10;55.10
55777;DHT22;54079;44.540;18.784;2024-03-02T08:11:26;32.40;54.30
55777;DHT22;54079;44.540;18.784;2024-03-02T08:13:56;32.60;53.70
55777;DHT22;54079;44.540;18.784;2024-03-02T08:16:23;32.60;52.90
55777;DHT22;54079;44.540;18.784;2024-03-02T08:18:49;33.90;52.70
55777;DHT22;54079;44.540;18.784;2024-03-02T08:21:15;34.10;51.50
55777;DHT22;54079;44.540;18.784;2024-03-02T08:23:42;34.00;51.40
55777;DHT22;54079;44.540;18.784;2024-03-02T08:26:09;34.20;50.30
55777;DHT22;54079;44.540;18.784;2024-03-02T08:28:36;35.10;51.00
55777;DHT22;54079;44.540;18.784;2024-03-02T08:31:08;35.40;50.10
55777;DHT22;54079;44.540;18.784;2024-03-02T08:33:34;36.00;50.20
55777;DHT22;54079;44.540;18.784;2024-03-02T08:36:00;35.60;50.70
55777;DHT22;54079;44.540;18.784;2024-03-02T08:38:27;36.10;50.30
55777;DHT22;54079;44.540;18.784;2024-03-02T08:40:53;37.10;49.20
55777;DHT22;54079;44.540;18.784;2024-03-02T08:43:19;36.90;48.30
55777;DHT22;54079;44.540;18.784;2024-03-02T08:45:45;37.30;48.20
55777;DHT22;54079;44.540;18.784;2024-03-02T08:48:12;37.20;47.30
55777;DHT22;54079;44.540;18.784;2024-03-02T08:50:38;36.70;47.90
55777;DHT22;54079;44.540;18.784;2024-03-02T08:53:04;37.00;48.00
55777;DHT22;54079;44.540;18.784;2024-03-02T08:55:31;36.50;47.10
55777;DHT22;54079;44.540;18.784;2024-03-02T08:57:57;37.40;48.00
55777;DHT22;54079;44.540;18.784;2024-03-02T09:00:23;38.10;46.60
55777;DHT22;54079;44.540;18.784;2024-03-02T09:02:50;38.80;47.00
55777;DHT22;54079;44.540;18.784;2024-03-02T09:05:16;38.70;45.50
55777;DHT22;54079;44.540;18.784;2024-03-02T09:07:42;39.10;45.90
55777;DHT22;54079;44.540;18.784;2024-03-02T09:10:08;39.30;46.40
55777;DHT22;54079;44.540;18.784;2024-03-02T09:12:35;39.30;45.80
55777;DHT22;54079;44.540;18.784;2024-03-02T09:15:02;38.40;44.70
55777;DHT22;54079;44.540;18.784;2024-03-02T09:17:34;38.00;45.60
55777;DHT22;54079;44.540;18.784;2024-03-02T09:20:00;38.20;46.20
55777;DHT22;54079;44.540;18.784;2024-03-02T09:22:26;39.70;46.90
55777;DHT22;54079;44.540;18.784;2024-03-02T09:24:52;40.50;45.30
55777;DHT22;54079;44.540;18.784;2024-03-02T09:27:18;41.50;44.00
55777;DHT22;54079;44.540;18.784;2024-03-02T09:29:44;41.70;42.90
55777;DHT22;54079;44.540;18.784;2024-03-02T09:32:13;38.80;41.80
55777;DHT22;54079;44.540;18.784;2024-03-02T09:34:40;40.00;43.70
55777;DHT22;54079;44.540;18.784;2024-03-02T09:37:06;37.50;43.90
55777;DHT22;54079;44.540;18.784;2024-03-02T09:39:32;33.40;45.90
55777;DHT22;54079;44.540;18.784;2024-03-02T09:41:59;29.70;46.50
55777;DHT22;54079;44.540;18.784;2024-03-02T09:44:26;27.90;48.70
55777;DHT22;54079;44.540;18.784;2024-03-02T09:46:52;26.70;50.40
55777;DHT22;54079;44.540;18.784;2024-03-02T09:49:18;25.50;51.00
55777;DHT22;54079;44.540;18.784;2024-03-02T09:51:48;24.70;51.80
55777;DHT22;54079;44.540;18.784;2024-03-02T09:54:16;23.50;52.10
55777;DHT22;54079;44.540;18.784;2024-03-02T09:56:42;22.80;53.20
55777;DHT22;54079;44.540;18.784;2024-03-02T09:59:08;22.40;54.50
55777;DHT22;54079;44.540;18.784;2024-03-02T10:01:34;22.40;55.50
55777;DHT22;54079;44.540;18.784;2024-03-02T10:04:00;22.20;55.40
55777;DHT22;54079;44.540;18.784;2024-03-02T10:06:27;21.90;55.50
55777;DHT22;54079;44.540;18.784;2024-03-02T10:08:53;21.80;54.50
55777;DHT22;54079;44.540;18.784;2024-03-02T10:14:10;21.30;57.50
55777;DHT22;54079;44.540;18.784;2024-03-02T10:16:41;21.20;56.10
55777;DHT22;54079;44.540;18.784;2024-03-02T10:19:17;21.20;55.80
55777;DHT22;54079;44.540;18.784;2024-03-02T10:21:45;21.10;55.60
55777;DHT22;54079;44.540;18.784;2024-03-02T10:24:11;20.90;56.30
55777;DHT22;54079;44.540;18.784;2024-03-02T10:26:38;21.00;56.80
55777;DHT22;54079;44.540;18.784;2024-03-02T10:29:04;21.00;54.90
55777;DHT22;54079;44.540;18.784;2024-03-02T10:31:30;21.10;54.40
55777;DHT22;54079;44.540;18.784;2024-03-02T10:33:58;21.00;54.70
55777;DHT22;54079;44.540;18.784;2024-03-02T10:36:24;20.80;53.70
55777;DHT22;54079;44.540;18.784;2024-03-02T10:38:52;20.70;54.30
55777;DHT22;54079;44.540;18.784;2024-03-02T10:41:24;20.40;53.40
55777;DHT22;54079;44.540;18.784;2024-03-02T10:43:53;20.20;54.00
55777;DHT22;54079;44.540;18.784;2024-03-02T10:46:28;20.30;56.70
55777;DHT22;54079;44.540;18.784;2024-03-02T10:48:58;20.50;56.10
55777;DHT22;54079;44.540;18.784;2024-03-02T10:51:26;20.20;53.50
55777;DHT22;54079;44.540;18.784;2024-03-02T10:53:53;20.30;54.10
55777;DHT22;54079;44.540;18.784;2024-03-02T10:56:28;20.20;54.10
55777;DHT22;54079;44.540;18.784;2024-03-02T10:59:06;20.20;54.20
55777;DHT22;54079;44.540;18.784;2024-03-02T11:01:39;20.20;54.10
55777;DHT22;54079;44.540;18.784;2024-03-02T11:04:08;20.30;56.10
55777;DHT22;54079;44.540;18.784;2024-03-02T11:06:36;20.30;54.00
55777;DHT22;54079;44.540;18.784;2024-03-02T11:09:07;20.30;54.00
55777;DHT22;54079;44.540;18.784;2024-03-02T11:11:41;20.30;54.50
55777;DHT22;54079;44.540;18.784;2024-03-02T11:14:13;20.30;54.60
55777;DHT22;54079;44.540;18.784;2024-03-02T11:16:41;20.20;54.50
55777;DHT22;54079;44.540;18.784;2024-03-02T11:19:13;20.40;54.50
55777;DHT22;54079;44.540;18.784;2024-03-02T11:21:39;20.10;53.20
55777;DHT22;54079;44.540;18.784;2024-03-02T11:26:53;20.10;54.50
55777;DHT22;54079;44.540;18.784;2024-03-02T11:34:34;20.20;54.50
55777;DHT22;54079;44.540;18.784;2024-03-02T11:37:03;20.20;54.80
55777;DHT22;54079;44.540;18.784;2024-03-02T11:39:30;20.20;55.60
55777;DHT22;54079;44.540;18.784;2024-03-02T11:41:57;20.10;55.90
55777;DHT22;54079;44.540;18.784;2024-03-02T11:44:29;20.10;54.80
55777;DHT22;54079;44.540;18.784;2024-03-02T11:46:59;20.10;55.40
55777;DHT22;54079;44.540;18.784;2024-03-02T11:49:45;20.20;55.30
55777;DHT22;54079;44.540;18.784;2024-03-02T11:52:13;20.30;55.00
55777;DHT22;54079;44.540;18.784;2024-03-02T11:54:42;20.00;53.70
55777;DHT22;54079;44.540;18.784;2024-03-02T11:57:18;19.60;53.90
55777;DHT22;54079;44.540;18.784;2024-03-02T11:59:45;19.60;55.70
55777;DHT22;54079;44.540;18.784;2024-03-02T12:02:16;19.70;56.10
55777;DHT22;54079;44.540;18.784;2024-03-02T12:04:46;19.90;55.70
55777;DHT22;54079;44.540;18.784;2024-03-02T12:07:22;19.90;55.80
55777;DHT22;54079;44.540;18.784;2024-03-02T12:09:59;20.10;56.00
55777;DHT22;54079;44.540;18.784;2024-03-02T12:12:25;20.20;55.00
55777;DHT22;54079;44.540;18.784;2024-03-02T12:14:53;20.30;54.70
55777;DHT22;54079;44.540;18.784;2024-03-02T12:17:22;20.40;54.90
55777;DHT22;54079;44.540;18.784;2024-03-02T12:19:49;20.60;55.70
55777;DHT22;54079;44.540;18.784;2024-03-02T12:22:15;20.50;54.40
55777;DHT22;54079;44.540;18.784;2024-03-02T12:24:41;20.60;54.30
55777;DHT22;54079;44.540;18.784;2024-03-02T12:27:12;20.50;55.10
55777;DHT22;54079;44.540;18.784;2024-03-02T12:29:39;20.20;54.70
55777;DHT22;54079;44.540;18.784;2024-03-02T12:32:05;20.20;55.00
55777;DHT22;54079;44.540;18.784;2024-03-02T12:34:32;20.10;53.70
55777;DHT22;54079;44.540;18.784;2024-03-02T12:36:58;20.00;55.40
55777;DHT22;54079;44.540;18.784;2024-03-02T12:39:24;20.20;54.80
55777;DHT22;54079;44.540;18.784;2024-03-02T12:41:51;20.10;54.90
55777;DHT22;54079;44.540;18.784;2024-03-02T12:44:17;20.20;55.80
55777;DHT22;54079;44.540;18.784;2024-03-02T12:46:46;20.30;55.30
55777;DHT22;54079;44.540;18.784;2024-03-02T12:49:14;20.20;55.40
55777;DHT22;54079;44.540;18.784;2024-03-02T12:51:43;20.20;54.40
55777;DHT22;54079;44.540;18.784;2024-03-02T12:54:12;20.30;55.50
55777;DHT22;54079;44.540;18.784;2024-03-02T12:56:41;20.30;54.60
55777;DHT22;54079;44.540;18.784;2024-03-02T12:59:19;20.70;54.50
55777;DHT22;54079;44.540;18.784;2024-03-02T13:01:54;21.00;55.00
55777;DHT22;54079;44.540;18.784;2024-03-02T13:04:29;21.00;53.50
55777;DHT22;54079;44.540;18.784;2024-03-02T13:06:56;20.90;54.50
55777;DHT22;54079;44.540;18.784;2024-03-02T13:09:24;21.20;54.90
55777;DHT22;54079;44.540;18.784;2024-03-02T13:11:50;21.20;58.20
55777;DHT22;54079;44.540;18.784;2024-03-02T13:14:16;21.40;58.40
55777;DHT22;54079;44.540;18.784;2024-03-02T13:16:42;21.50;57.50
55777;DHT22;54079;44.540;18.784;2024-03-02T13:19:09;20.90;52.20
55777;DHT22;54079;44.540;18.784;2024-03-02T13:21:35;20.90;55.00
55777;DHT22;54079;44.540;18.784;2024-03-02T13:24:01;21.00;54.70
55777;DHT22;54079;44.540;18.784;2024-03-02T13:26:29;21.00;53.20
55777;DHT22;54079;44.540;18.784;2024-03-02T13:28:55;20.60;53.50
55777;DHT22;54079;44.540;18.784;2024-03-02T13:31:23;20.30;56.10
55777;DHT22;54079;44.540;18.784;2024-03-02T13:33:50;20.50;54.80
55777;DHT22;54079;44.540;18.784;2024-03-02T13:36:16;20.70;54.10
55777;DHT22;54079;44.540;18.784;2024-03-02T13:38:42;20.70;53.80
55777;DHT22;54079;44.540;18.784;2024-03-02T13:41:08;20.60;54.40
55777;DHT22;54079;44.540;18.784;2024-03-02T13:43:36;20.70;55.40
55777;DHT22;54079;44.540;18.784;2024-03-02T13:46:04;21.00;55.00
55777;DHT22;54079;44.540;18.784;2024-03-02T13:48:30;21.10;56.60
55777;DHT22;54079;44.540;18.784;2024-03-02T13:50:57;20.80;52.90
55777;DHT22;54079;44.540;18.784;2024-03-02T13:53:23;20.30;53.40
55777;DHT22;54079;44.540;18.784;2024-03-02T13:55:49;20.10;53.50
55777;DHT22;54079;44.540;18.784;2024-03-02T13:58:15;20.30;53.80
55777;DHT22;54079;44.540;18.784;2024-03-02T14:00:41;20.30;55.50
55777;DHT22;54079;44.540;18.784;2024-03-02T14:03:07;20.40;53.70
55777;DHT22;54079;44.540;18.784;2024-03-02T14:05:33;20.70;53.40
55777;DHT22;54079;44.540;18.784;2024-03-02T14:07:59;20.90;53.60
55777;DHT22;54079;44.540;18.784;2024-03-02T14:10:26;20.70;53.00
55777;DHT22;54079;44.540;18.784;2024-03-02T14:12:52;20.50;54.10
55777;DHT22;54079;44.540;18.784;2024-03-02T14:15:19;20.10;58.70
55777;DHT22;54079;44.540;18.784;2024-03-02T14:17:45;19.60;60.90
55777;DHT22;54079;44.540;18.784;2024-03-02T14:20:11;19.10;61.90
55777;DHT22;54079;44.540;18.784;2024-03-02T14:22:39;19.10;62.30
55777;DHT22;54079;44.540;18.784;2024-03-02T14:25:06;18.90;62.00
55777;DHT22;54079;44.540;18.784;2024-03-02T14:27:32;18.80;62.30
55777;DHT22;54079;44.540;18.784;2024-03-02T14:29:58;18.80;61.90
55777;DHT22;54079;44.540;18.784;2024-03-02T14:32:24;18.60;62.20
55777;DHT22;54079;44.540;18.784;2024-03-02T14:34:50;18.70;62.10
55777;DHT22;54079;44.540;18.784;2024-03-02T14:37:15;18.60;61.70
55777;DHT22;54079;44.540;18.784;2024-03-02T14:39:41;18.50;62.40
55777;DHT22;54079;44.540;18.784;2024-03-02T14:42:08;18.50;62.50
55777;DHT22;54079;44.540;18.784;2024-03-02T14:44:34;18.50;62.70
55777;DHT22;54079;44.540;18.784;2024-03-02T14:47:02;18.30;63.40
55777;DHT22;54079;44.540;18.784;2024-03-02T14:49:30;18.60;64.60
55777;DHT22;54079;44.540;18.784;2024-03-02T14:51:56;18.80;63.60
55777;DHT22;54079;44.540;18.784;2024-03-02T14:54:22;18.40;64.30
55777;DHT22;54079;44.540;18.784;2024-03-02T14:56:48;18.40;64.90
55777;DHT22;54079;44.540;18.784;2024-03-02T14:59:14;18.50;65.00
55777;DHT22;54079;44.540;18.784;2024-03-02T15:01:41;18.40;64.90
55777;DHT22;54079;44.540;18.784;2024-03-02T15:04:07;18.50;65.90
55777;DHT22;54079;44.540;18.784;2024-03-02T15:06:33;18.20;65.20
55777;DHT22;54079;44.540;18.784;2024-03-02T15:08:58;18.20;65.40
55777;DHT22;54079;44.540;18.784;2024-03-02T15:11:27;18.40;65.60
55777;DHT22;54079;44.540;18.784;2024-03-02T15:13:52;18.10;65.80
55777;DHT22;54079;44.540;18.784;2024-03-02T15:16:18;18.00;66.70
55777;DHT22;54079;44.540;18.784;2024-03-02T15:18:44;18.00;66.00
55777;DHT22;54079;44.540;18.784;2024-03-02T15:21:11;18.00;66.00
55777;DHT22;54079;44.540;18.784;2024-03-02T15:23:37;18.00;66.60
55777;DHT22;54079;44.540;18.784;2024-03-02T15:26:03;18.00;66.50
55777;DHT22;54079;44.540;18.784;2024-03-02T15:28:29;17.90;65.80
55777;DHT22;54079;44.540;18.784;2024-03-02T15:30:55;18.00;65.60